METAR AND TAF INFORMATION
METAR FOR MMVR
ADDS - METARS form results

(1940 UTC 26 April 2018)
Data provider http://aviationweather.gov/adds/metars/
 
METAR text: MMVR 261847Z 00000KT 6SM SCT005 BKN020 OVC040 24/22 A2997 RMK 8/7// HZY OCNL DROPS MSGTX MMMX
Conditions at: MMVR (VERACRUZ , MX) observed 1847 UTC 26 April 2018
Temperature: 24.0°C (75°F)
Dewpoint: 22.0°C (72°F) [RH = 89%]
Pressure (altimeter): 29.97 inches Hg (1015.0 mb)
Winds: calm
Visibility: 6 miles (10 km)
Ceiling: 2000 feet AGL
Clouds: scattered clouds at 500 feet AGL
broken clouds at 2000 feet AGL
overcast cloud deck at 4000 feet AGL
Weather: no significant weather observed at this time

Forecast for: MMVR (VERACRUZ , MX)
Text: TAF MMVR 261645Z 2618/2718 04015KT 2SM TSRA BKN010CB OVC020 TX29/2620Z TN20/2712Z
Forecast period: 1800 to 1900 UTC 26 April 2018
Forecast type: FROM: standard forecast or significant change
Winds: from the NE (40 degrees) at 17 MPH (15 knots; 7.8 m/s)
Visibility: 2.00 miles (3.22 km)
Ceiling: 1000 feet AGL
Clouds: broken clouds at 1000 feet AGL
overcast cloud deck at 2000 feet AGL
Weather: TSRA  (rain associated with thunderstorm(s))
Forecast for: MMVR (VERACRUZ , MX)
Text: TAF MMVR 261645Z 2618/2718 04015KT 2SM TSRA BKN010CB OVC020 TX29/2620Z TN20/2712Z
Forecast period: 1800 to 1900 UTC 26 April 2018
Forecast type: FROM: standard forecast or significant change
Winds: from the NE (40 degrees) at 17 MPH (15 knots; 7.8 m/s)
Visibility: 2.00 miles (3.22 km)
Ceiling: 1000 feet AGL
Clouds: broken clouds at 1000 feet AGL
overcast cloud deck at 2000 feet AGL
Weather: TSRA  (rain associated with thunderstorm(s))
Forecast for: MMVR (VERACRUZ , MX)
Text: TAF MMVR 261645Z 2618/2718 04015KT 2SM TSRA BKN010CB OVC020 TX29/2620Z TN20/2712Z
Forecast period: 1900 to 2000 UTC 26 April 2018
Forecast type: FROM: standard forecast or significant change
Winds: from the NNW (340 degrees) at 17 MPH (15 knots; 7.8 m/s)
Visibility: 5 miles (8 km)
Ceiling: 1500 feet AGL
Clouds: broken clouds at 1500 feet AGL
overcast cloud deck at 8000 feet AGL
Weather: RA  (rain)
Forecast for: MMVR (VERACRUZ , MX)
Text: TAF MMVR 261645Z 2618/2718 04015KT 2SM TSRA BKN010CB OVC020 TX29/2620Z TN20/2712Z
Forecast period: 1900 to 2000 UTC 26 April 2018
Forecast type: FROM: standard forecast or significant change
Winds: from the NNW (340 degrees) at 17 MPH (15 knots; 7.8 m/s)
Visibility: 5 miles (8 km)
Ceiling: 1500 feet AGL
Clouds: broken clouds at 1500 feet AGL
overcast cloud deck at 8000 feet AGL
Weather: RA  (rain)
Forecast for: MMVR (VERACRUZ , MX)
Text: TAF MMVR 261645Z 2618/2718 04015KT 2SM TSRA BKN010CB OVC020 TX29/2620Z TN20/2712Z
Forecast period: 2000 UTC 26 April 2018 to 0600 UTC 27 April 2018
Forecast type: FROM: standard forecast or significant change
Winds: from the NNW (340 degrees) at 17 MPH (15 knots; 7.8 m/s)
Visibility: 6 or more miles (10+ km)
Ceiling: 2000 feet AGL
Clouds: broken clouds at 2000 feet AGL
broken clouds at 8000 feet AGL
Weather: no significant weather forecast for this period
Forecast for: MMVR (VERACRUZ , MX)
Text: TAF MMVR 261645Z 2618/2718 04015KT 2SM TSRA BKN010CB OVC020 TX29/2620Z TN20/2712Z
Forecast period: 2000 UTC 26 April 2018 to 0600 UTC 27 April 2018
Forecast type: FROM: standard forecast or significant change
Winds: from the NNW (340 degrees) at 17 MPH (15 knots; 7.8 m/s)
Visibility: 6 or more miles (10+ km)
Ceiling: 2000 feet AGL
Clouds: broken clouds at 2000 feet AGL
broken clouds at 8000 feet AGL
Weather: no significant weather forecast for this period
Forecast for: MMVR (VERACRUZ , MX)
Text: TAF MMVR 261645Z 2618/2718 04015KT 2SM TSRA BKN010CB OVC020 TX29/2620Z TN20/2712Z
Forecast period: 2300 UTC 26 April 2018 to 0300 UTC 27 April 2018
Forecast type: TEMPORARY: The following changes expected for less than half the time period
Visibility: 5 miles (8 km)
Weather: RA  (rain)
Forecast for: MMVR (VERACRUZ , MX)
Text: TAF MMVR 261645Z 2618/2718 04015KT 2SM TSRA BKN010CB OVC020 TX29/2620Z TN20/2712Z
Forecast period: 2300 UTC 26 April 2018 to 0300 UTC 27 April 2018
Forecast type: TEMPORARY: The following changes expected for less than half the time period
Visibility: 5 miles (8 km)
Weather: RA  (rain)
Forecast for: MMVR (VERACRUZ , MX)
Text: TAF MMVR 261645Z 2618/2718 04015KT 2SM TSRA BKN010CB OVC020 TX29/2620Z TN20/2712Z
Forecast period: 0600 to 1500 UTC 27 April 2018
Forecast type: FROM: standard forecast or significant change
Winds: calm
Visibility: 3 miles (5 km)
Ceiling: 1000 feet AGL
Clouds: overcast cloud deck at 1000 feet AGL
Weather: DZ BR  (drizzle, mist)
Forecast for: MMVR (VERACRUZ , MX)
Text: TAF MMVR 261645Z 2618/2718 04015KT 2SM TSRA BKN010CB OVC020 TX29/2620Z TN20/2712Z
Forecast period: 0600 to 1500 UTC 27 April 2018
Forecast type: FROM: standard forecast or significant change
Winds: calm
Visibility: 3 miles (5 km)
Ceiling: 1000 feet AGL
Clouds: overcast cloud deck at 1000 feet AGL
Weather: DZ BR  (drizzle, mist)
Forecast for: MMVR (VERACRUZ , MX)
Text: TAF MMVR 261645Z 2618/2718 04015KT 2SM TSRA BKN010CB OVC020 TX29/2620Z TN20/2712Z
Forecast period: 1500 to 1800 UTC 27 April 2018
Forecast type: FROM: standard forecast or significant change
Winds: from the NNW (340 degrees) at 12 MPH (10 knots; 5.2 m/s)
Visibility: 5 miles (8 km)
Ceiling: 1500 feet AGL
Clouds: overcast cloud deck at 1500 feet AGL
Weather: HZ  (haze)
Forecast for: MMVR (VERACRUZ , MX)
Text: TAF MMVR 261645Z 2618/2718 04015KT 2SM TSRA BKN010CB OVC020 TX29/2620Z TN20/2712Z
Forecast period: 1500 to 1800 UTC 27 April 2018
Forecast type: FROM: standard forecast or significant change
Winds: from the NNW (340 degrees) at 12 MPH (10 knots; 5.2 m/s)
Visibility: 5 miles (8 km)
Ceiling: 1500 feet AGL
Clouds: overcast cloud deck at 1500 feet AGL
Weather: HZ  (haze)

 AIRPORT MAP

 RUNWAY INFORMATION
Runway 09 Runway length 4997 ft Runway width 148 ft
Runway elevation 90 ft Runway displaced threshold 0 ft Runway heading 101
Runway 27 Runway length 4997 ft Runway width 148 ft
Runway elevation 90 ft Runway displaced threshold 0 ft Runway heading 281
Runway 18 Runway length 7874 ft Runway width 148 ft
Runway elevation 89 ft Runway displaced threshold 0 ft Runway heading 191
Runway 36 Runway length 7874 ft Runway width 148 ft
Runway elevation 111 ft Runway displaced threshold 0 ft Runway heading 11

 AIRPORT FREQUENCIES
Type APP Name VERACRUZ A Frequency 120.4 MHZ
Type ATIS Name ATIS Frequency 127.8 MHZ
Type TWR Name VERACRUZ T Frequency 118.5 MHZ

 AIRPORT NEAR NAVIGATION AIDS
Type VOR-DME Name Veracruz Frequency 114000 KHZ



v2.6.1